Terminal Aerodrome Forecast
Issued by NWS

Home | Current Version | Previous Version | Text Only | Print | Product List | Glossary On
Versions: 1 2 3 4 5 6 7 8 9 10 11 12 13
285
FTUS44 KLZK 271720
TAFHRO
TAF
KHRO 271720Z 2718/2818 15008KT P6SM SCT100 SCT250
     FM280400 15004KT P6SM FEW250
     FM281600 16007KT P6SM FEW150=

USA.gov is the U.S. government's official web portal to all federal, state and local government web resources and services.